createdAt,value
2018-10-06T00:01:15.588Z,67.90
2018-10-06T00:03:46.466Z,67.90
2018-10-06T00:06:15.339Z,67.90
2018-10-06T00:08:44.296Z,67.90
2018-10-06T00:11:12.715Z,68.10
2018-10-06T00:13:41.017Z,68.20
2018-10-06T00:16:09.349Z,68.10
2018-10-06T00:18:38.020Z,68.00
2018-10-06T00:21:06.559Z,68.20
2018-10-06T00:23:34.944Z,68.40
2018-10-06T00:26:03.365Z,68.30
2018-10-06T00:28:31.842Z,68.50
2018-10-06T00:31:00.398Z,68.40
2018-10-06T00:33:28.704Z,68.70
2018-10-06T00:35:57.533Z,68.30
2018-10-06T00:38:25.893Z,69.20
2018-10-06T00:40:54.317Z,68.80
2018-10-06T00:43:22.689Z,68.50
2018-10-06T00:45:51.031Z,68.50
2018-10-06T00:48:19.363Z,68.80
2018-10-06T00:50:47.732Z,68.90
2018-10-06T00:53:16.062Z,68.80
2018-10-06T00:55:44.498Z,68.70
2018-10-06T00:58:13.146Z,68.80
2018-10-06T01:00:41.425Z,69.10
2018-10-06T01:03:09.838Z,68.80
2018-10-06T01:05:38.194Z,69.00
2018-10-06T01:08:06.472Z,69.00
2018-10-06T01:10:34.865Z,69.10
2018-10-06T01:13:03.189Z,69.00
2018-10-06T01:15:31.607Z,69.10
2018-10-06T01:18:00.057Z,69.00
2018-10-06T01:20:28.477Z,68.90
2018-10-06T01:22:56.807Z,69.10
2018-10-06T01:25:25.224Z,69.10
2018-10-06T01:27:53.559Z,69.20
2018-10-06T01:30:21.884Z,69.30
2018-10-06T01:32:50.388Z,69.30
2018-10-06T01:35:18.689Z,69.20
2018-10-06T01:37:47.055Z,69.10
2018-10-06T01:40:15.610Z,69.40
2018-10-06T01:42:43.974Z,69.30
2018-10-06T01:45:12.283Z,69.20
2018-10-06T01:47:40.902Z,69.40
2018-10-06T01:50:09.708Z,69.20
2018-10-06T01:52:38.037Z,69.20
2018-10-06T01:55:06.591Z,69.20
2018-10-06T01:57:35.561Z,69.80
2018-10-06T02:00:04.480Z,69.60
2018-10-06T02:02:32.867Z,69.50
2018-10-06T02:05:01.332Z,70.00
2018-10-06T02:07:29.728Z,69.80
2018-10-06T02:09:58.079Z,70.00
2018-10-06T02:12:26.868Z,69.80
2018-10-06T02:14:55.471Z,69.80
2018-10-06T02:17:24.919Z,69.90
2018-10-06T02:19:53.408Z,69.90
2018-10-06T02:22:21.946Z,69.90
2018-10-06T02:24:50.533Z,70.00
2018-10-06T02:27:18.884Z,69.80
2018-10-06T02:29:47.348Z,70.70
2018-10-06T02:32:15.714Z,69.90
2018-10-06T02:34:44.076Z,69.90
2018-10-06T02:37:12.525Z,69.90
2018-10-06T02:39:40.857Z,69.90
2018-10-06T02:42:09.148Z,70.00
2018-10-06T02:44:37.567Z,69.80
2018-10-06T02:47:06.017Z,70.90
2018-10-06T02:49:34.401Z,70.00
2018-10-06T02:52:02.703Z,70.00
2018-10-06T02:54:31.032Z,69.90
2018-10-06T02:56:59.716Z,70.10
2018-10-06T02:59:28.041Z,70.10
2018-10-06T03:01:56.724Z,70.20
2018-10-06T03:04:25.419Z,70.20
2018-10-06T03:06:53.952Z,70.20
2018-10-06T03:09:22.567Z,70.20
2018-10-06T03:11:50.916Z,70.20
2018-10-06T03:14:19.236Z,70.20
2018-10-06T03:16:47.576Z,70.20
2018-10-06T03:19:16.002Z,70.30
2018-10-06T03:21:44.384Z,70.20
2018-10-06T03:24:12.741Z,70.30
2018-10-06T03:26:41.049Z,70.30
2018-10-06T03:29:09.401Z,70.20
2018-10-06T03:31:37.865Z,70.20
2018-10-06T03:34:06.469Z,70.30
2018-10-06T03:36:34.776Z,70.20
2018-10-06T03:39:03.233Z,70.30
2018-10-06T03:41:31.569Z,70.30
2018-10-06T03:44:00.131Z,70.50
2018-10-06T03:46:29.105Z,70.40
2018-10-06T03:48:57.472Z,70.30
2018-10-06T03:51:26.006Z,70.50
2018-10-06T03:53:54.490Z,70.40
2018-10-06T03:56:22.829Z,70.40
2018-10-06T03:58:51.281Z,70.40
2018-10-06T04:01:19.842Z,70.70
2018-10-06T04:03:48.160Z,70.40
2018-10-06T04:06:17.015Z,70.60
2018-10-06T04:08:45.310Z,70.40
2018-10-06T04:11:13.673Z,70.40
2018-10-06T04:13:41.982Z,70.60
2018-10-06T04:16:10.322Z,70.50
2018-10-06T04:18:38.648Z,70.60
2018-10-06T04:21:12.195Z,70.60
2018-10-06T04:23:40.556Z,70.70
2018-10-06T04:26:08.867Z,70.70
2018-10-06T04:28:37.208Z,70.70
2018-10-06T04:31:05.572Z,70.80
2018-10-06T04:33:33.953Z,70.80
2018-10-06T04:36:02.305Z,71.30
2018-10-06T04:38:31.097Z,70.90
2018-10-06T04:40:59.586Z,71.30
2018-10-06T04:43:27.931Z,71.20
2018-10-06T04:45:56.602Z,71.20
2018-10-06T04:48:25.041Z,71.00
2018-10-06T04:50:54.296Z,71.10
2018-10-06T04:53:22.750Z,71.00
2018-10-06T04:55:51.085Z,71.10
2018-10-06T04:58:19.834Z,71.40
2018-10-06T05:00:48.163Z,71.20
2018-10-06T05:03:16.797Z,71.20
2018-10-06T05:05:45.069Z,71.20
2018-10-06T05:08:13.433Z,71.20
2018-10-06T05:10:42.394Z,71.30
2018-10-06T05:13:20.066Z,71.20
2018-10-06T05:15:48.938Z,71.30
2018-10-06T05:18:17.256Z,71.30
2018-10-06T05:20:45.596Z,71.30
2018-10-06T05:23:14.169Z,71.50
2018-10-06T05:28:30.418Z,71.30
2018-10-06T05:30:59.715Z,71.40
2018-10-06T05:33:29.263Z,71.40
2018-10-06T05:36:02.849Z,71.30
2018-10-06T05:38:33.074Z,71.30
2018-10-06T05:41:02.560Z,71.50
2018-10-06T05:43:34.630Z,71.50
2018-10-06T05:46:05.087Z,71.40
2018-10-06T05:48:34.411Z,71.50
2018-10-06T05:51:03.732Z,71.60
2018-10-06T05:53:34.143Z,71.60
2018-10-06T05:56:03.519Z,71.50
2018-10-06T05:58:34.665Z,71.20
2018-10-06T06:01:05.035Z,71.80
2018-10-06T06:03:36.132Z,71.80
2018-10-06T06:06:07.160Z,71.60
2018-10-06T06:08:36.490Z,71.80
2018-10-06T06:11:05.722Z,71.90
2018-10-06T06:13:40.898Z,72.10
2018-10-06T06:16:14.398Z,71.90
2018-10-06T06:18:57.636Z,72.10
2018-10-06T06:21:27.756Z,72.30
2018-10-06T06:24:00.444Z,72.20
2018-10-06T06:26:40.142Z,72.30
2018-10-06T06:29:10.181Z,72.50
2018-10-06T06:31:41.971Z,72.30
2018-10-06T06:34:12.255Z,73.20
2018-10-06T06:36:55.200Z,73.20
2018-10-06T06:39:28.659Z,73.00
2018-10-06T06:41:58.674Z,72.90
2018-10-06T06:45:13.346Z,73.20
2018-10-06T06:47:48.618Z,73.20
2018-10-06T06:50:18.021Z,72.80
2018-10-06T06:52:47.963Z,73.10
2018-10-06T06:55:18.025Z,73.20
2018-10-06T06:57:49.229Z,73.10
2018-10-06T07:00:19.115Z,73.10
2018-10-06T07:02:51.317Z,73.00
2018-10-06T07:05:23.397Z,73.50
2018-10-06T07:07:56.124Z,73.60
2018-10-06T07:10:28.056Z,73.30
2018-10-06T07:12:59.566Z,73.20
2018-10-06T07:15:29.911Z,73.80
2018-10-06T07:18:01.876Z,73.80
2018-10-06T07:20:31.387Z,73.70
2018-10-06T07:23:01.095Z,73.70
2018-10-06T07:25:31.225Z,73.70
2018-10-06T07:28:00.861Z,74.20
2018-10-06T07:30:30.422Z,74.10
2018-10-06T07:33:05.012Z,73.80
2018-10-06T07:35:42.582Z,73.60
2018-10-06T07:38:12.307Z,73.80
2018-10-06T07:40:41.975Z,73.70
2018-10-06T07:43:18.140Z,73.80
2018-10-06T07:45:49.689Z,73.90
2018-10-06T07:50:58.338Z,74.10
2018-10-06T07:53:26.835Z,73.90
2018-10-06T07:55:55.208Z,74.10
2018-10-06T07:58:23.557Z,74.20
2018-10-06T08:00:51.905Z,74.10
2018-10-06T08:03:20.261Z,74.50
2018-10-06T08:05:48.536Z,74.10
2018-10-06T08:08:16.840Z,75.10
2018-10-06T08:10:45.156Z,74.50
2018-10-06T08:13:13.486Z,74.50
2018-10-06T08:15:41.804Z,74.60
2018-10-06T08:18:10.125Z,74.30
2018-10-06T08:20:38.429Z,75.80
2018-10-06T08:23:06.754Z,74.20
2018-10-06T08:25:35.244Z,74.30
2018-10-06T08:28:03.524Z,74.50
2018-10-06T08:30:31.853Z,74.70
2018-10-06T08:33:00.224Z,74.50
2018-10-06T08:35:29.061Z,74.50
2018-10-06T08:37:57.645Z,75.20
2018-10-06T08:40:26.090Z,74.30
2018-10-06T08:42:54.558Z,74.00
2018-10-06T08:45:22.837Z,74.10
2018-10-06T08:47:51.575Z,74.20
2018-10-06T08:50:20.137Z,74.10
2018-10-06T08:52:48.693Z,74.20
2018-10-06T08:55:17.093Z,74.40
2018-10-06T08:57:45.538Z,74.40
2018-10-06T09:00:14.295Z,74.40
2018-10-06T09:02:42.852Z,74.30
2018-10-06T09:05:11.185Z,74.10
2018-10-06T09:07:39.856Z,73.90
2018-10-06T09:10:09.133Z,74.00
2018-10-06T09:12:37.471Z,73.70
2018-10-06T09:15:06.342Z,73.50
2018-10-06T09:17:34.816Z,74.10
2018-10-06T09:20:03.468Z,74.20
2018-10-06T09:22:31.830Z,74.30
2018-10-06T09:25:00.291Z,74.40
2018-10-06T09:27:28.833Z,74.30
2018-10-06T09:29:57.241Z,74.30
2018-10-06T09:32:25.727Z,74.40
2018-10-06T09:34:54.064Z,74.80
2018-10-06T09:37:22.584Z,74.40
2018-10-06T09:39:51.835Z,74.40
2018-10-06T09:42:20.482Z,74.30
2018-10-06T09:44:48.774Z,74.30
2018-10-06T09:47:17.237Z,74.00
2018-10-06T09:49:46.054Z,74.10
2018-10-06T09:52:14.451Z,73.70
2018-10-06T09:54:42.891Z,73.40
2018-10-06T09:57:11.506Z,73.20
2018-10-06T09:59:40.478Z,73.50
2018-10-06T10:02:10.812Z,73.20
2018-10-06T10:04:39.307Z,72.70
2018-10-06T10:07:07.847Z,72.60
2018-10-06T10:09:36.520Z,72.40
2018-10-06T10:12:05.044Z,72.50
2018-10-06T10:14:33.690Z,72.00
2018-10-06T10:17:02.313Z,72.60
2018-10-06T10:19:30.955Z,73.00
2018-10-06T10:21:59.514Z,72.20
2018-10-06T10:24:28.070Z,72.10
2018-10-06T10:26:56.663Z,71.50
2018-10-06T10:29:25.316Z,72.10
2018-10-06T10:31:53.851Z,71.10
2018-10-06T10:34:22.367Z,71.20
2018-10-06T10:36:50.734Z,71.30
2018-10-06T10:39:19.123Z,71.40
2018-10-06T10:41:47.482Z,71.80
2018-10-06T10:44:15.993Z,72.50
2018-10-06T10:46:44.400Z,71.50
2018-10-06T10:49:12.791Z,70.60
2018-10-06T10:51:41.176Z,70.90
2018-10-06T10:54:09.694Z,71.10
2018-10-06T10:56:38.138Z,71.30
2018-10-06T10:59:06.641Z,70.30
2018-10-06T11:04:17.029Z,71.60
2018-10-06T11:06:45.415Z,70.90
2018-10-06T11:09:13.762Z,70.10
2018-10-06T11:11:42.464Z,69.20
2018-10-06T11:14:10.946Z,68.90
2018-10-06T11:16:39.321Z,69.30
2018-10-06T11:19:09.216Z,69.30
2018-10-06T11:21:37.560Z,69.50
2018-10-06T11:24:05.960Z,70.10
2018-10-06T11:26:34.297Z,69.30
2018-10-06T11:29:03.011Z,69.70
2018-10-06T11:31:31.499Z,69.60
2018-10-06T11:33:59.972Z,68.20
2018-10-06T11:36:28.276Z,68.50
2018-10-06T11:38:57.475Z,65.60
2018-10-06T11:41:26.264Z,63.10
2018-10-06T11:43:54.689Z,63.50
2018-10-06T11:46:23.121Z,65.10
2018-10-06T11:48:53.377Z,63.30
2018-10-06T11:51:21.772Z,65.40
2018-10-06T11:53:50.399Z,64.00
2018-10-06T11:56:18.963Z,63.00
2018-10-06T11:58:47.296Z,65.90
2018-10-06T12:01:15.615Z,63.30
2018-10-06T12:03:43.929Z,63.70
2018-10-06T12:06:12.289Z,62.80
2018-10-06T12:08:40.665Z,62.50
2018-10-06T12:11:08.978Z,62.10
2018-10-06T12:13:37.330Z,59.30
2018-10-06T12:16:05.701Z,60.80
2018-10-06T12:18:33.981Z,59.30
2018-10-06T12:21:02.545Z,61.10
2018-10-06T12:23:30.988Z,60.70
2018-10-06T12:25:59.434Z,59.60
2018-10-06T12:28:27.760Z,60.20
2018-10-06T12:30:56.246Z,61.90
2018-10-06T12:33:24.708Z,61.10
2018-10-06T12:35:54.334Z,60.90
2018-10-06T12:38:23.221Z,61.50
2018-10-06T12:40:51.547Z,62.30
2018-10-06T12:43:19.979Z,61.60
2018-10-06T12:45:48.295Z,61.60
2018-10-06T12:48:16.726Z,61.30
2018-10-06T12:50:45.015Z,61.60
2018-10-06T12:53:13.404Z,62.30
2018-10-06T12:55:41.689Z,61.90
2018-10-06T12:58:10.165Z,63.00
2018-10-06T13:00:38.488Z,62.50
2018-10-06T13:03:07.007Z,62.40
2018-10-06T13:05:35.338Z,62.60
2018-10-06T13:08:03.653Z,63.30
2018-10-06T13:10:32.048Z,61.30
2018-10-06T13:13:00.458Z,62.30
2018-10-06T13:15:28.840Z,62.70
2018-10-06T13:17:57.197Z,62.40
2018-10-06T13:20:25.589Z,62.20
2018-10-06T13:22:53.947Z,62.50
2018-10-06T13:25:22.549Z,62.50
2018-10-06T13:27:51.087Z,62.80
2018-10-06T13:30:19.533Z,62.00
2018-10-06T13:32:47.936Z,62.80
2018-10-06T13:35:16.261Z,64.30
2018-10-06T13:37:44.628Z,61.90
2018-10-06T13:40:12.964Z,61.70
2018-10-06T13:42:41.274Z,63.10
2018-10-06T13:45:09.677Z,62.60
2018-10-06T13:47:38.044Z,62.50
2018-10-06T13:50:06.524Z,60.60
2018-10-06T13:52:34.915Z,61.50
2018-10-06T13:55:03.361Z,59.90
2018-10-06T13:57:31.867Z,61.60
2018-10-06T14:00:00.170Z,60.80
2018-10-06T14:02:28.704Z,60.50
2018-10-06T14:04:57.529Z,60.40
2018-10-06T14:07:25.927Z,59.60
2018-10-06T14:09:54.678Z,60.30
2018-10-06T14:12:23.033Z,60.00
2018-10-06T14:14:51.451Z,60.70
2018-10-06T14:17:19.901Z,60.40
2018-10-06T14:19:48.306Z,61.90
2018-10-06T14:22:17.898Z,62.40
2018-10-06T14:24:46.331Z,62.00
2018-10-06T14:27:16.595Z,62.20
2018-10-06T14:29:47.583Z,62.40
2018-10-06T14:32:18.082Z,62.40
2018-10-06T14:34:49.458Z,62.70
2018-10-06T14:37:20.007Z,63.00
2018-10-06T14:39:48.323Z,63.00
2018-10-06T14:42:16.645Z,63.70
2018-10-06T14:44:44.970Z,63.60
2018-10-06T14:47:13.654Z,63.30
2018-10-06T14:49:42.147Z,63.90
2018-10-06T14:52:10.549Z,64.00
2018-10-06T14:54:39.029Z,63.80
2018-10-06T14:57:08.096Z,63.90
2018-10-06T14:59:36.867Z,63.60
2018-10-06T15:02:05.372Z,63.90
2018-10-06T15:04:33.853Z,64.40
2018-10-06T15:07:02.650Z,64.30
2018-10-06T15:09:31.147Z,64.50
2018-10-06T15:11:59.687Z,64.80
2018-10-06T15:14:28.213Z,65.30
2018-10-06T15:16:56.544Z,64.90
2018-10-06T15:19:25.809Z,65.00
2018-10-06T15:21:55.170Z,65.00
2018-10-06T15:24:23.623Z,65.40
2018-10-06T15:26:51.913Z,65.60
2018-10-06T15:29:20.479Z,65.70
2018-10-06T15:31:48.864Z,65.60
2018-10-06T15:34:17.209Z,66.00
2018-10-06T15:36:46.591Z,66.00
2018-10-06T15:39:15.003Z,66.80
2018-10-06T15:41:43.330Z,66.30
2018-10-06T15:44:11.713Z,66.40
2018-10-06T15:46:40.052Z,66.40
2018-10-06T15:49:08.529Z,66.80
2018-10-06T15:51:36.848Z,67.00
2018-10-06T15:54:05.424Z,67.00
2018-10-06T15:56:33.780Z,67.00
2018-10-06T15:59:02.192Z,67.20
2018-10-06T16:01:30.667Z,67.60
2018-10-06T16:03:59.108Z,67.70
2018-10-06T16:06:27.509Z,67.50
2018-10-06T16:08:55.918Z,67.50
2018-10-06T16:11:25.281Z,67.30
2018-10-06T16:13:53.948Z,67.40
2018-10-06T16:16:22.567Z,67.40
2018-10-06T16:18:50.962Z,67.90
2018-10-06T16:21:19.403Z,67.90
2018-10-06T16:23:47.710Z,68.10
2018-10-06T16:26:16.445Z,68.00
2018-10-06T16:28:44.802Z,68.20
2018-10-06T16:31:13.117Z,68.20
2018-10-06T16:33:41.533Z,67.90
2018-10-06T16:36:10.027Z,68.30
2018-10-06T16:38:38.420Z,68.00
2018-10-06T16:41:06.787Z,68.80
2018-10-06T16:43:35.143Z,68.40
2018-10-06T16:46:03.798Z,68.40
2018-10-06T16:48:32.131Z,68.30
2018-10-06T16:51:00.541Z,68.60
2018-10-06T16:53:28.929Z,68.50
2018-10-06T16:55:57.406Z,68.90
2018-10-06T16:58:25.980Z,68.90
2018-10-06T17:00:54.410Z,69.20
2018-10-06T17:03:22.757Z,68.70
2018-10-06T17:05:51.113Z,69.40
2018-10-06T17:08:19.411Z,69.40
2018-10-06T17:10:47.777Z,69.10
2018-10-06T17:13:17.105Z,69.10
2018-10-06T17:15:45.415Z,69.30
2018-10-06T17:18:14.411Z,69.40
2018-10-06T17:20:42.709Z,69.80
2018-10-06T17:23:11.091Z,69.30
2018-10-06T17:25:39.470Z,69.60
2018-10-06T17:28:07.801Z,69.90
2018-10-06T17:30:36.212Z,69.90
2018-10-06T17:33:04.682Z,70.10
2018-10-06T17:35:33.448Z,70.00
2018-10-06T17:38:01.768Z,70.50
2018-10-06T17:40:30.257Z,71.10
2018-10-06T17:42:58.627Z,71.10
2018-10-06T17:45:27.108Z,72.00
2018-10-06T17:47:55.490Z,72.00
2018-10-06T17:50:24.072Z,71.90
2018-10-06T17:52:52.559Z,71.40
2018-10-06T17:55:20.927Z,71.30
2018-10-06T17:57:49.334Z,72.30
2018-10-06T18:00:17.950Z,72.40
2018-10-06T18:02:46.281Z,71.90
2018-10-06T18:05:14.656Z,73.10
2018-10-06T18:07:43.292Z,73.80
2018-10-06T18:10:11.630Z,73.60
2018-10-06T18:12:39.921Z,72.90
2018-10-06T18:15:08.271Z,74.70
2018-10-06T18:17:36.916Z,73.50
2018-10-06T18:20:05.418Z,74.00
2018-10-06T18:22:33.694Z,73.90
2018-10-06T18:25:02.029Z,74.00
2018-10-06T18:27:30.377Z,73.50
2018-10-06T18:29:58.818Z,74.30
2018-10-06T18:32:27.219Z,74.00
2018-10-06T18:34:55.644Z,74.10
2018-10-06T18:37:24.067Z,74.30
2018-10-06T18:39:52.388Z,74.30
2018-10-06T18:42:20.729Z,74.10
2018-10-06T18:44:49.083Z,73.60
2018-10-06T18:47:17.389Z,73.50
2018-10-06T18:49:45.768Z,73.80
2018-10-06T18:52:14.110Z,73.60
2018-10-06T18:54:42.466Z,74.20
2018-10-06T18:57:10.876Z,74.40
2018-10-06T18:59:39.243Z,74.70
2018-10-06T19:02:07.676Z,74.10
2018-10-06T19:04:36.151Z,74.30
2018-10-06T19:07:04.556Z,74.50
2018-10-06T19:09:32.961Z,74.60
2018-10-06T19:12:01.432Z,74.60
2018-10-06T19:14:29.878Z,74.30
2018-10-06T19:16:59.112Z,74.70
2018-10-06T19:19:27.622Z,74.60
2018-10-06T19:21:56.126Z,74.70
2018-10-06T19:24:25.034Z,75.00
2018-10-06T19:26:53.358Z,74.90
2018-10-06T19:29:21.768Z,76.30
2018-10-06T19:31:50.146Z,75.70
2018-10-06T19:34:19.410Z,77.10
2018-10-06T19:36:47.729Z,76.60
2018-10-06T19:39:16.060Z,76.60
2018-10-06T19:41:44.435Z,76.20
2018-10-06T19:44:12.869Z,76.90
2018-10-06T19:46:41.162Z,77.50
2018-10-06T19:49:09.485Z,76.40
2018-10-06T19:51:37.856Z,77.30
2018-10-06T19:54:06.635Z,77.60
2018-10-06T19:56:35.001Z,77.80
2018-10-06T19:59:03.328Z,78.60
2018-10-06T20:01:31.850Z,77.60
2018-10-06T20:04:00.216Z,78.20
2018-10-06T20:06:28.641Z,78.20
2018-10-06T20:08:57.093Z,78.70
2018-10-06T20:11:25.468Z,79.10
2018-10-06T20:13:54.740Z,78.80
2018-10-06T20:16:23.073Z,78.00
2018-10-06T20:18:51.358Z,78.30
2018-10-06T20:21:19.792Z,78.80
2018-10-06T20:23:48.129Z,78.70
2018-10-06T20:26:16.446Z,78.80
2018-10-06T20:28:44.797Z,78.00
2018-10-06T20:31:13.118Z,78.00
2018-10-06T20:33:41.500Z,78.00
2018-10-06T20:36:09.839Z,78.60
2018-10-06T20:38:38.178Z,77.90
2018-10-06T20:41:06.950Z,78.20
2018-10-06T20:43:35.295Z,77.90
2018-10-06T20:46:03.641Z,78.40
2018-10-06T20:48:31.957Z,78.70
2018-10-06T20:51:00.384Z,78.20
2018-10-06T20:53:28.908Z,79.00
2018-10-06T20:55:57.322Z,78.70
2018-10-06T20:58:25.807Z,78.80
2018-10-06T21:00:54.310Z,78.20
2018-10-06T21:03:22.897Z,79.10
2018-10-06T21:05:51.385Z,79.00
2018-10-06T21:08:19.704Z,78.80
2018-10-06T21:10:48.140Z,79.00
2018-10-06T21:13:16.475Z,79.20
2018-10-06T21:15:45.041Z,79.00
2018-10-06T21:18:13.422Z,79.10
2018-10-06T21:20:41.761Z,79.00
2018-10-06T21:23:10.161Z,78.80
2018-10-06T21:25:38.571Z,78.60
2018-10-06T21:28:07.022Z,78.80
2018-10-06T21:30:35.484Z,78.40
2018-10-06T21:33:04.166Z,79.10
2018-10-06T21:35:32.482Z,79.30
2018-10-06T21:38:00.801Z,78.80
2018-10-06T21:40:29.803Z,79.10
2018-10-06T21:42:58.284Z,79.00
2018-10-06T21:45:27.116Z,78.70
2018-10-06T21:47:55.599Z,79.00
2018-10-06T21:50:24.081Z,78.60
2018-10-06T21:52:52.657Z,78.40
2018-10-06T21:55:21.012Z,78.30
2018-10-06T21:57:49.359Z,78.10
2018-10-06T22:00:18.034Z,78.90
2018-10-06T22:02:46.394Z,78.50
2018-10-06T22:05:14.712Z,78.70
2018-10-06T22:07:44.382Z,78.80
2018-10-06T22:10:12.958Z,79.30
2018-10-06T22:12:41.395Z,79.20
2018-10-06T22:15:10.093Z,79.50
2018-10-06T22:17:38.448Z,79.50
2018-10-06T22:20:06.832Z,78.70
2018-10-06T22:22:35.199Z,78.80
2018-10-06T22:25:03.520Z,78.70
2018-10-06T22:27:31.880Z,78.60
2018-10-06T22:30:00.553Z,78.10
2018-10-06T22:32:29.060Z,78.30
2018-10-06T22:34:57.540Z,78.20
2018-10-06T22:37:25.920Z,78.10
2018-10-06T22:39:54.428Z,78.00
2018-10-06T22:42:22.772Z,78.40
2018-10-06T22:44:51.134Z,78.50
2018-10-06T22:47:19.524Z,77.90
2018-10-06T22:49:47.812Z,78.00
2018-10-06T22:52:16.137Z,78.00
2018-10-06T22:54:44.516Z,78.00
2018-10-06T23:00:04.920Z,77.80
2018-10-06T23:02:33.399Z,78.00
2018-10-06T23:05:01.761Z,77.80
2018-10-06T23:07:30.136Z,77.90
2018-10-06T23:09:58.696Z,77.90
2018-10-06T23:12:27.124Z,77.90
2018-10-06T23:14:55.740Z,77.80
2018-10-06T23:17:24.141Z,78.10
2018-10-06T23:19:52.605Z,77.50
2018-10-06T23:22:21.073Z,77.10
2018-10-06T23:24:49.422Z,77.40
2018-10-06T23:27:17.863Z,77.10
2018-10-06T23:29:46.189Z,76.90
2018-10-06T23:32:14.655Z,76.10
2018-10-06T23:34:43.141Z,76.10
2018-10-06T23:37:11.534Z,76.10
2018-10-06T23:39:39.896Z,76.30
2018-10-06T23:42:08.320Z,76.40
2018-10-06T23:44:36.638Z,76.00
2018-10-06T23:47:05.027Z,75.70
2018-10-06T23:49:33.689Z,75.90
2018-10-06T23:52:02.083Z,75.50
2018-10-06T23:54:30.646Z,75.70
2018-10-06T23:56:59.032Z,75.20
2018-10-06T23:59:27.529Z,75.30
